sensor_id;sensor_type;location;lat;lon;timestamp;pressure;altitude;pressure_sealevel;temperature;humidity
51468;BME280;37545;45.302;-122.946;2023-01-27T00:00:20;102991.59;;;8.81;87.18
51468;BME280;37545;45.302;-122.946;2023-01-27T00:02:48;102994.66;;;8.75;88.17
51468;BME280;37545;45.302;-122.946;2023-01-27T00:05:17;102988.81;;;8.78;88.47
51468;BME280;37545;45.302;-122.946;2023-01-27T00:07:46;102978.69;;;8.81;89.25
51468;BME280;37545;45.302;-122.946;2023-01-27T00:10:18;102969.38;;;8.83;88.66
51468;BME280;37545;45.302;-122.946;2023-01-27T00:12:47;102970.72;;;8.78;87.57
51468;BME280;37545;45.302;-122.946;2023-01-27T00:15:33;102979.94;;;8.74;88.37
51468;BME280;37545;45.302;-122.946;2023-01-27T00:18:01;102975.44;;;8.72;87.79
51468;BME280;37545;45.302;-122.946;2023-01-27T00:20:30;102978.81;;;8.71;89.03
51468;BME280;37545;45.302;-122.946;2023-01-27T00:23:16;102974.44;;;8.70;89.65
51468;BME280;37545;45.302;-122.946;2023-01-27T00:26:05;102969.28;;;8.70;89.67
51468;BME280;37545;45.302;-122.946;2023-01-27T00:28:34;102965.69;;;8.68;88.99
51468;BME280;37545;45.302;-122.946;2023-01-27T00:31:04;102964.78;;;8.67;89.72
51468;BME280;37545;45.302;-122.946;2023-01-27T00:33:33;102956.16;;;8.67;90.16
51468;BME280;37545;45.302;-122.946;2023-01-27T00:36:02;102954.34;;;8.66;90.17
51468;BME280;37545;45.302;-122.946;2023-01-27T00:38:33;102953.38;;;8.64;91.01
51468;BME280;37545;45.302;-122.946;2023-01-27T00:41:07;102945.94;;;8.56;90.61
51468;BME280;37545;45.302;-122.946;2023-01-27T00:43:45;102947.19;;;8.50;89.98
51468;BME280;37545;45.302;-122.946;2023-01-27T00:46:14;102950.22;;;8.44;91.12
51468;BME280;37545;45.302;-122.946;2023-01-27T00:48:43;102938.16;;;8.33;92.54
51468;BME280;37545;45.302;-122.946;2023-01-27T00:51:13;102948.59;;;8.34;91.62
51468;BME280;37545;45.302;-122.946;2023-01-27T00:53:42;102950.94;;;8.31;93.30
51468;BME280;37545;45.302;-122.946;2023-01-27T00:56:12;102944.13;;;8.32;92.62
51468;BME280;37545;45.302;-122.946;2023-01-27T00:58:47;102941.31;;;8.29;93.08
51468;BME280;37545;45.302;-122.946;2023-01-27T01:01:16;102939.66;;;8.29;94.02
51468;BME280;37545;45.302;-122.946;2023-01-27T01:03:44;102945.56;;;8.28;93.87
51468;BME280;37545;45.302;-122.946;2023-01-27T01:06:15;102936.81;;;8.26;93.93
51468;BME280;37545;45.302;-122.946;2023-01-27T01:08:44;102937.50;;;8.24;94.19
51468;BME280;37545;45.302;-122.946;2023-01-27T01:11:16;102937.50;;;8.24;94.62
51468;BME280;37545;45.302;-122.946;2023-01-27T01:13:45;102929.09;;;8.26;94.66
51468;BME280;37545;45.302;-122.946;2023-01-27T01:16:15;102937.72;;;8.27;94.79
51468;BME280;37545;45.302;-122.946;2023-01-27T01:18:44;102936.13;;;8.29;94.46
51468;BME280;37545;45.302;-122.946;2023-01-27T01:21:13;102930.44;;;8.33;94.51
51468;BME280;37545;45.302;-122.946;2023-01-27T01:23:43;102929.66;;;8.34;94.57
51468;BME280;37545;45.302;-122.946;2023-01-27T01:26:15;102913.84;;;8.29;96.67
51468;BME280;37545;45.302;-122.946;2023-01-27T01:28:44;102916.88;;;8.24;96.68
51468;BME280;37545;45.302;-122.946;2023-01-27T01:31:15;102931.22;;;8.20;97.48
51468;BME280;37545;45.302;-122.946;2023-01-27T01:33:44;102925.41;;;8.23;97.76
51468;BME280;37545;45.302;-122.946;2023-01-27T01:36:15;102924.13;;;8.17;97.18
51468;BME280;37545;45.302;-122.946;2023-01-27T01:38:44;102928.41;;;8.29;96.79
51468;BME280;37545;45.302;-122.946;2023-01-27T01:41:16;102924.25;;;8.31;94.99
51468;BME280;37545;45.302;-122.946;2023-01-27T01:43:45;102908.09;;;8.22;95.35
51468;BME280;37545;45.302;-122.946;2023-01-27T01:46:14;102912.03;;;8.16;95.40
51468;BME280;37545;45.302;-122.946;2023-01-27T01:48:44;102903.97;;;8.12;96.84
51468;BME280;37545;45.302;-122.946;2023-01-27T01:51:15;102901.16;;;8.09;96.59
51468;BME280;37545;45.302;-122.946;2023-01-27T01:53:49;102892.31;;;8.05;96.99
51468;BME280;37545;45.302;-122.946;2023-01-27T01:56:24;102883.75;;;8.06;97.63
51468;BME280;37545;45.302;-122.946;2023-01-27T01:58:54;102881.19;;;8.06;98.55
51468;BME280;37545;45.302;-122.946;2023-01-27T02:01:25;102884.56;;;8.05;98.99
51468;BME280;37545;45.302;-122.946;2023-01-27T02:03:59;102895.75;;;8.06;99.69
51468;BME280;37545;45.302;-122.946;2023-01-27T02:06:35;102889.94;;;8.08;99.76
51468;BME280;37545;45.302;-122.946;2023-01-27T02:09:06;102891.19;;;8.13;99.56
51468;BME280;37545;45.302;-122.946;2023-01-27T02:11:36;102892.22;;;8.15;99.18
51468;BME280;37545;45.302;-122.946;2023-01-27T02:14:05;102888.63;;;8.13;97.86
51468;BME280;37545;45.302;-122.946;2023-01-27T02:16:34;102889.94;;;8.08;97.61
51468;BME280;37545;45.302;-122.946;2023-01-27T02:19:04;102877.50;;;8.03;96.91
51468;BME280;37545;45.302;-122.946;2023-01-27T02:21:33;102881.53;;;7.99;97.89
51468;BME280;37545;45.302;-122.946;2023-01-27T02:24:03;102868.88;;;8.02;98.30
51468;BME280;37545;45.302;-122.946;2023-01-27T02:26:42;102853.41;;;8.02;98.25
51468;BME280;37545;45.302;-122.946;2023-01-27T02:29:13;102862.81;;;8.02;98.43
51468;BME280;37545;45.302;-122.946;2023-01-27T02:31:41;102853.41;;;8.02;97.74
51468;BME280;37545;45.302;-122.946;2023-01-27T02:34:12;102853.50;;;8.04;98.85
51468;BME280;37545;45.302;-122.946;2023-01-27T02:36:45;102848.34;;;8.04;98.11
51468;BME280;37545;45.302;-122.946;2023-01-27T02:39:17;102853.84;;;8.08;98.28
51468;BME280;37545;45.302;-122.946;2023-01-27T02:41:50;102844.44;;;8.09;98.99
51468;BME280;37545;45.302;-122.946;2023-01-27T02:44:19;102855.88;;;8.12;98.01
51468;BME280;37545;45.302;-122.946;2023-01-27T02:46:48;102847.34;;;8.13;97.61
51468;BME280;37545;45.302;-122.946;2023-01-27T02:49:17;102845.66;;;8.14;97.64
51468;BME280;37545;45.302;-122.946;2023-01-27T02:51:45;102842.19;;;8.13;98.01
51468;BME280;37545;45.302;-122.946;2023-01-27T02:54:14;102846.78;;;8.17;97.71
51468;BME280;37545;45.302;-122.946;2023-01-27T02:56:43;102842.63;;;8.19;98.23
51468;BME280;37545;45.302;-122.946;2023-01-27T02:59:13;102844.44;;;8.21;96.64
51468;BME280;37545;45.302;-122.946;2023-01-27T03:01:41;102839.97;;;8.18;96.91
51468;BME280;37545;45.302;-122.946;2023-01-27T03:04:10;102840.72;;;8.17;96.65
51468;BME280;37545;45.302;-122.946;2023-01-27T03:06:38;102835.03;;;8.09;96.81
51468;BME280;37545;45.302;-122.946;2023-01-27T03:09:07;102842.41;;;8.16;97.55
51468;BME280;37545;45.302;-122.946;2023-01-27T03:11:38;102843.22;;;8.15;97.47
51468;BME280;37545;45.302;-122.946;2023-01-27T03:14:24;102830.31;;;8.15;98.19
51468;BME280;37545;45.302;-122.946;2023-01-27T03:17:10;102837.25;;;8.16;97.56
51468;BME280;37545;45.302;-122.946;2023-01-27T03:19:55;102840.84;;;8.18;97.68
51468;BME280;37545;45.302;-122.946;2023-01-27T03:22:23;102839.97;;;8.18;98.30
51468;BME280;37545;45.302;-122.946;2023-01-27T03:24:52;102839.97;;;8.18;97.20
51468;BME280;37545;45.302;-122.946;2023-01-27T03:27:21;102837.25;;;8.16;96.65
51468;BME280;37545;45.302;-122.946;2023-01-27T03:29:51;102835.47;;;8.15;96.65
51468;BME280;37545;45.302;-122.946;2023-01-27T03:32:24;102838.81;;;8.14;96.61
51468;BME280;37545;45.302;-122.946;2023-01-27T03:34:53;102839.63;;;8.13;97.73
51468;BME280;37545;45.302;-122.946;2023-01-27T03:37:23;102824.91;;;8.12;97.64
51468;BME280;37545;45.302;-122.946;2023-01-27T03:40:09;102812.72;;;8.10;97.57
51468;BME280;37545;45.302;-122.946;2023-01-27T03:42:55;102821.78;;;8.05;98.09
51468;BME280;37545;45.302;-122.946;2023-01-27T03:45:48;102834.78;;;8.06;98.32
51468;BME280;37545;45.302;-122.946;2023-01-27T03:48:33;102817.53;;;8.05;97.95
51468;BME280;37545;45.302;-122.946;2023-01-27T03:51:03;102820.00;;;8.04;98.96
51468;BME280;37545;45.302;-122.946;2023-01-27T03:53:33;102829.41;;;8.03;98.62
51468;BME280;37545;45.302;-122.946;2023-01-27T03:56:01;102830.31;;;8.04;99.68
51468;BME280;37545;45.302;-122.946;2023-01-27T03:58:33;102823.47;;;8.04;98.99
51468;BME280;37545;45.302;-122.946;2023-01-27T04:01:05;102823.47;;;8.04;99.19
51468;BME280;37545;45.302;-122.946;2023-01-27T04:03:35;102819.31;;;8.06;99.99
51468;BME280;37545;45.302;-122.946;2023-01-27T04:06:21;102828.06;;;8.08;99.32
51468;BME280;37545;45.302;-122.946;2023-01-27T04:09:08;102820.31;;;8.08;99.86
51468;BME280;37545;45.302;-122.946;2023-01-27T04:11:37;102815.75;;;8.04;99.85
51468;BME280;37545;45.302;-122.946;2023-01-27T04:14:26;102812.16;;;8.02;99.42
51468;BME280;37545;45.302;-122.946;2023-01-27T04:16:58;102808.31;;;7.97;99.71
51468;BME280;37545;45.302;-122.946;2023-01-27T04:19:34;102812.72;;;7.98;100.00
51468;BME280;37545;45.302;-122.946;2023-01-27T04:22:03;102815.28;;;7.98;100.00
51468;BME280;37545;45.302;-122.946;2023-01-27T04:24:31;102803.28;;;7.98;100.00
51468;BME280;37545;45.302;-122.946;2023-01-27T04:27:01;102790.88;;;7.93;100.00
51468;BME280;37545;45.302;-122.946;2023-01-27T04:29:32;102794.78;;;7.88;100.00
51468;BME280;37545;45.302;-122.946;2023-01-27T04:32:03;102796.38;;;7.86;100.00
51468;BME280;37545;45.302;-122.946;2023-01-27T04:34:33;102798.16;;;7.87;100.00
51468;BME280;37545;45.302;-122.946;2023-01-27T04:37:01;102794.69;;;7.86;100.00
51468;BME280;37545;45.302;-122.946;2023-01-27T04:39:30;102798.16;;;7.87;100.00
51468;BME280;37545;45.302;-122.946;2023-01-27T04:41:59;102789.53;;;7.86;100.00
51468;BME280;37545;45.302;-122.946;2023-01-27T04:44:28;102789.28;;;7.83;100.00
51468;BME280;37545;45.302;-122.946;2023-01-27T04:46:57;102777.31;;;7.84;100.00
51468;BME280;37545;45.302;-122.946;2023-01-27T04:49:27;102781.66;;;7.85;100.00
51468;BME280;37545;45.302;-122.946;2023-01-27T04:51:55;102778.31;;;7.86;100.00
51468;BME280;37545;45.302;-122.946;2023-01-27T04:54:24;102777.41;;;7.85;100.00
51468;BME280;37545;45.302;-122.946;2023-01-27T04:56:57;102762.84;;;7.86;100.00
51468;BME280;37545;45.302;-122.946;2023-01-27T04:59:26;102750.75;;;7.85;100.00
51468;BME280;37545;45.302;-122.946;2023-01-27T05:01:54;102753.09;;;7.82;100.00
51468;BME280;37545;45.302;-122.946;2023-01-27T05:04:23;102753.09;;;7.82;100.00
51468;BME280;37545;45.302;-122.946;2023-01-27T05:06:54;102762.53;;;7.81;100.00
51468;BME280;37545;45.302;-122.946;2023-01-27T05:09:23;102758.00;;;7.79;100.00
51468;BME280;37545;45.302;-122.946;2023-01-27T05:11:52;102758.13;;;7.80;100.00
51468;BME280;37545;45.302;-122.946;2023-01-27T05:14:20;102746.16;;;7.81;100.00
51468;BME280;37545;45.302;-122.946;2023-01-27T05:16:51;102747.16;;;7.83;100.00
51468;BME280;37545;45.302;-122.946;2023-01-27T05:19:20;102739.66;;;7.86;100.00
51468;BME280;37545;45.302;-122.946;2023-01-27T05:21:51;102726.78;;;7.86;100.00
51468;BME280;37545;45.302;-122.946;2023-01-27T05:24:21;102728.56;;;7.87;100.00
51468;BME280;37545;45.302;-122.946;2023-01-27T05:26:50;102726.66;;;7.84;100.00
51468;BME280;37545;45.302;-122.946;2023-01-27T05:29:18;102712.88;;;7.84;100.00
51468;BME280;37545;45.302;-122.946;2023-01-27T05:31:47;102710.88;;;7.80;100.00
51468;BME280;37545;45.302;-122.946;2023-01-27T05:34:16;102711.41;;;7.75;100.00
51468;BME280;37545;45.302;-122.946;2023-01-27T05:36:44;102704.25;;;7.71;100.00
51468;BME280;37545;45.302;-122.946;2023-01-27T05:39:13;102706.63;;;7.68;100.00
51468;BME280;37545;45.302;-122.946;2023-01-27T05:41:43;102704.59;;;7.64;100.00
51468;BME280;37545;45.302;-122.946;2023-01-27T05:44:12;102704.59;;;7.64;100.00
51468;BME280;37545;45.302;-122.946;2023-01-27T05:46:41;102707.28;;;7.66;100.00
51468;BME280;37545;45.302;-122.946;2023-01-27T05:49:10;102701.34;;;7.67;100.00
51468;BME280;37545;45.302;-122.946;2023-01-27T05:51:39;102686.44;;;7.63;100.00
51468;BME280;37545;45.302;-122.946;2023-01-27T05:54:08;102680.31;;;7.61;100.00
51468;BME280;37545;45.302;-122.946;2023-01-27T05:56:36;102686.34;;;7.61;100.00
51468;BME280;37545;45.302;-122.946;2023-01-27T05:59:09;102686.22;;;7.60;100.00
51468;BME280;37545;45.302;-122.946;2023-01-27T06:01:38;102676.81;;;7.60;100.00
51468;BME280;37545;45.302;-122.946;2023-01-27T06:04:08;102670.66;;;7.58;100.00
51468;BME280;37545;45.302;-122.946;2023-01-27T06:06:37;102660.00;;;7.53;100.00
51468;BME280;37545;45.302;-122.946;2023-01-27T06:09:05;102655.53;;;7.51;100.00
51468;BME280;37545;45.302;-122.946;2023-01-27T06:11:34;102658.91;;;7.50;100.00
51468;BME280;37545;45.302;-122.946;2023-01-27T06:14:02;102664.06;;;7.50;100.00
51468;BME280;37545;45.302;-122.946;2023-01-27T06:16:33;102670.09;;;7.50;100.00
51468;BME280;37545;45.302;-122.946;2023-01-27T06:19:02;102684.00;;;7.52;100.00
51468;BME280;37545;45.302;-122.946;2023-01-27T06:21:31;102678.84;;;7.52;100.00
51468;BME280;37545;45.302;-122.946;2023-01-27T06:23:59;102683.53;;;7.58;100.00
51468;BME280;37545;45.302;-122.946;2023-01-27T06:26:29;102681.06;;;7.60;100.00
51468;BME280;37545;45.302;-122.946;2023-01-27T06:28:58;102669.06;;;7.60;100.00
51468;BME280;37545;45.302;-122.946;2023-01-27T06:31:26;102672.56;;;7.61;100.00
51468;BME280;37545;45.302;-122.946;2023-01-27T06:33:57;102672.47;;;7.59;100.00
51468;BME280;37545;45.302;-122.946;2023-01-27T06:36:25;102674.34;;;7.62;100.00
51468;BME280;37545;45.302;-122.946;2023-01-27T06:38:54;102676.13;;;7.63;100.00
51468;BME280;37545;45.302;-122.946;2023-01-27T06:41:23;102659.56;;;7.59;100.00
51468;BME280;37545;45.302;-122.946;2023-01-27T06:43:52;102651.38;;;7.53;100.00
51468;BME280;37545;45.302;-122.946;2023-01-27T06:46:20;102650.97;;;7.47;100.00
51468;BME280;37545;45.302;-122.946;2023-01-27T06:48:49;102641.31;;;7.44;100.00
51468;BME280;37545;45.302;-122.946;2023-01-27T06:51:19;102639.66;;;7.45;100.00
51468;BME280;37545;45.302;-122.946;2023-01-27T06:53:48;102650.97;;;7.47;100.00
51468;BME280;37545;45.302;-122.946;2023-01-27T06:56:16;102654.66;;;7.50;100.00
51468;BME280;37545;45.302;-122.946;2023-01-27T06:58:45;102658.22;;;7.52;100.00
51468;BME280;37545;45.302;-122.946;2023-01-27T07:01:14;102656.78;;;7.56;100.00
51468;BME280;37545;45.302;-122.946;2023-01-27T07:03:42;102650.84;;;7.57;100.00
51468;BME280;37545;45.302;-122.946;2023-01-27T07:06:11;102652.53;;;7.57;100.00
51468;BME280;37545;45.302;-122.946;2023-01-27T07:08:42;102644.00;;;7.58;100.00
51468;BME280;37545;45.302;-122.946;2023-01-27T07:11:12;102653.41;;;7.57;100.00
51468;BME280;37545;45.302;-122.946;2023-01-27T07:13:41;102645.88;;;7.60;100.00
51468;BME280;37545;45.302;-122.946;2023-01-27T07:16:09;102630.44;;;7.60;100.00
51468;BME280;37545;45.302;-122.946;2023-01-27T07:18:38;102632.13;;;7.60;100.00
51468;BME280;37545;45.302;-122.946;2023-01-27T07:21:07;102626.28;;;7.62;100.00
51468;BME280;37545;45.302;-122.946;2023-01-27T07:23:35;102627.09;;;7.61;100.00
51468;BME280;37545;45.302;-122.946;2023-01-27T07:26:05;102629.75;;;7.63;100.00
51468;BME280;37545;45.302;-122.946;2023-01-27T07:28:34;102608.25;;;7.62;100.00
51468;BME280;37545;45.302;-122.946;2023-01-27T07:31:03;102614.28;;;7.63;100.00
51468;BME280;37545;45.302;-122.946;2023-01-27T07:33:31;102622.81;;;7.62;100.00
51468;BME280;37545;45.302;-122.946;2023-01-27T07:36:00;102613.75;;;7.55;100.00
51468;BME280;37545;45.302;-122.946;2023-01-27T07:38:29;102604.00;;;7.51;100.00
51468;BME280;37545;45.302;-122.946;2023-01-27T07:40:58;102606.38;;;7.48;100.00
51468;BME280;37545;45.302;-122.946;2023-01-27T07:43:32;102602.03;;;7.47;100.00
51468;BME280;37545;45.302;-122.946;2023-01-27T07:46:01;102584.44;;;7.41;100.00
51468;BME280;37545;45.302;-122.946;2023-01-27T07:48:30;102586.91;;;7.40;100.00
51468;BME280;37545;45.302;-122.946;2023-01-27T07:50:58;102586.69;;;7.37;100.00
51468;BME280;37545;45.302;-122.946;2023-01-27T07:53:27;102565.00;;;7.33;100.00
51468;BME280;37545;45.302;-122.946;2023-01-27T07:55:58;102546.97;;;7.21;100.00
51468;BME280;37545;45.302;-122.946;2023-01-27T07:58:27;102543.97;;;7.15;100.00
51468;BME280;37545;45.302;-122.946;2023-01-27T08:01:06;102549.31;;;7.18;100.00
51468;BME280;37545;45.302;-122.946;2023-01-27T08:03:35;102533.19;;;7.21;100.00
51468;BME280;37545;45.302;-122.946;2023-01-27T08:06:05;102526.94;;;7.17;100.00
51468;BME280;37545;45.302;-122.946;2023-01-27T08:08:34;102537.13;;;7.16;100.00
51468;BME280;37545;45.302;-122.946;2023-01-27T08:11:04;102536.13;;;7.13;100.00
51468;BME280;37545;45.302;-122.946;2023-01-27T08:13:34;102538.69;;;7.13;100.00
51468;BME280;37545;45.302;-122.946;2023-01-27T08:16:06;102538.69;;;7.13;100.00
51468;BME280;37545;45.302;-122.946;2023-01-27T08:18:47;102527.50;;;7.13;100.00
51468;BME280;37545;45.302;-122.946;2023-01-27T08:21:15;102511.75;;;7.08;100.00
51468;BME280;37545;45.302;-122.946;2023-01-27T08:23:44;102507.81;;;7.13;100.00
51468;BME280;37545;45.302;-122.946;2023-01-27T08:26:12;102502.53;;;7.12;100.00
51468;BME280;37545;45.302;-122.946;2023-01-27T08:28:41;102495.28;;;7.06;100.00
51468;BME280;37545;45.302;-122.946;2023-01-27T08:31:13;102489.25;;;7.06;100.00
51468;BME280;37545;45.302;-122.946;2023-01-27T08:33:43;102486.75;;;7.07;100.00
51468;BME280;37545;45.302;-122.946;2023-01-27T08:36:14;102497.19;;;7.09;100.00
51468;BME280;37545;45.302;-122.946;2023-01-27T08:38:43;102489.00;;;7.03;100.00
51468;BME280;37545;45.302;-122.946;2023-01-27T08:41:16;102484.66;;;7.02;100.00
51468;BME280;37545;45.302;-122.946;2023-01-27T08:43:45;102492.38;;;7.02;100.00
51468;BME280;37545;45.302;-122.946;2023-01-27T08:46:16;102498.41;;;7.02;100.00
51468;BME280;37545;45.302;-122.946;2023-01-27T08:48:44;102476.06;;;7.01;100.00
51468;BME280;37545;45.302;-122.946;2023-01-27T08:51:13;102452.22;;;6.92;100.00
51468;BME280;37545;45.302;-122.946;2023-01-27T08:53:42;102459.84;;;6.90;100.00
51468;BME280;37545;45.302;-122.946;2023-01-27T08:56:14;102466.41;;;6.87;100.00
51468;BME280;37545;45.302;-122.946;2023-01-27T08:58:43;102466.34;;;6.85;100.00
51468;BME280;37545;45.302;-122.946;2023-01-27T09:01:16;102449.22;;;6.86;100.00
51468;BME280;37545;45.302;-122.946;2023-01-27T09:03:45;102449.97;;;6.85;100.00
51468;BME280;37545;45.302;-122.946;2023-01-27T09:06:14;102454.03;;;6.81;100.00
51468;BME280;37545;45.302;-122.946;2023-01-27T09:08:43;102471.47;;;6.85;100.00
51468;BME280;37545;45.302;-122.946;2023-01-27T09:11:32;102475.81;;;6.86;100.00
51468;BME280;37545;45.302;-122.946;2023-01-27T09:14:01;102466.34;;;6.85;100.00
51468;BME280;37545;45.302;-122.946;2023-01-27T09:16:31;102471.69;;;6.88;100.00
51468;BME280;37545;45.302;-122.946;2023-01-27T09:19:00;102460.50;;;6.88;100.00
51468;BME280;37545;45.302;-122.946;2023-01-27T09:21:29;102462.19;;;6.87;100.00
51468;BME280;37545;45.302;-122.946;2023-01-27T09:23:58;102454.47;;;6.87;100.00
51468;BME280;37545;45.302;-122.946;2023-01-27T09:26:26;102451.66;;;6.84;100.00
51468;BME280;37545;45.302;-122.946;2023-01-27T09:28:55;102448.75;;;6.80;100.00
51468;BME280;37545;45.302;-122.946;2023-01-27T09:31:24;102441.50;;;6.74;100.00
51468;BME280;37545;45.302;-122.946;2023-01-27T09:33:54;102432.78;;;6.72;100.00
51468;BME280;37545;45.302;-122.946;2023-01-27T09:36:23;102438.94;;;6.74;100.00
51468;BME280;37545;45.302;-122.946;2023-01-27T09:38:54;102428.84;;;6.77;100.00
51468;BME280;37545;45.302;-122.946;2023-01-27T09:41:44;102423.72;;;6.77;100.00
51468;BME280;37545;45.302;-122.946;2023-01-27T09:44:38;102424.59;;;6.78;100.00
51468;BME280;37545;45.302;-122.946;2023-01-27T09:47:27;102421.25;;;6.79;100.00
51468;BME280;37545;45.302;-122.946;2023-01-27T09:50:18;102415.78;;;6.74;100.00
51468;BME280;37545;45.302;-122.946;2023-01-27T09:53:07;102419.25;;;6.75;100.00
51468;BME280;37545;45.302;-122.946;2023-01-27T09:55:44;102429.66;;;6.76;100.00
51468;BME280;37545;45.302;-122.946;2023-01-27T09:58:27;102423.72;;;6.77;100.00
51468;BME280;37545;45.302;-122.946;2023-01-27T10:01:05;102420.13;;;6.75;100.00
51468;BME280;37545;45.302;-122.946;2023-01-27T10:04:05;102431.31;;;6.76;100.00
51468;BME280;37545;45.302;-122.946;2023-01-27T10:06:54;102421.69;;;6.73;100.00
51468;BME280;37545;45.302;-122.946;2023-01-27T10:09:47;102420.69;;;6.71;100.00
51468;BME280;37545;45.302;-122.946;2023-01-27T10:12:41;102422.03;;;6.66;100.00
51468;BME280;37545;45.302;-122.946;2023-01-27T10:15:22;102409.31;;;6.67;100.00
51468;BME280;37545;45.302;-122.946;2023-01-27T10:18:05;102401.13;;;6.73;100.00
51468;BME280;37545;45.302;-122.946;2023-01-27T10:20:43;102404.63;;;6.74;100.00
51468;BME280;37545;45.302;-122.946;2023-01-27T10:23:27;102396.88;;;6.74;100.00
51468;BME280;37545;45.302;-122.946;2023-01-27T10:26:06;102396.97;;;6.75;100.00
51468;BME280;37545;45.302;-122.946;2023-01-27T10:28:42;102391.06;;;6.76;100.00
51468;BME280;37545;45.302;-122.946;2023-01-27T10:31:21;102391.84;;;6.75;100.00
51468;BME280;37545;45.302;-122.946;2023-01-27T10:34:00;102377.19;;;6.74;100.00
51468;BME280;37545;45.302;-122.946;2023-01-27T10:36:39;102370.25;;;6.73;100.00
51468;BME280;37545;45.302;-122.946;2023-01-27T10:39:19;102361.53;;;6.71;100.00
51468;BME280;37545;45.302;-122.946;2023-01-27T10:41:58;102352.50;;;6.64;100.00
51468;BME280;37545;45.302;-122.946;2023-01-27T10:44:48;102334.38;;;6.63;100.00
51468;BME280;37545;45.302;-122.946;2023-01-27T10:47:29;102336.16;;;6.64;100.00
51468;BME280;37545;45.302;-122.946;2023-01-27T10:50:06;102335.38;;;6.65;100.00
51468;BME280;37545;45.302;-122.946;2023-01-27T10:52:39;102334.72;;;6.67;100.00
51468;BME280;37545;45.302;-122.946;2023-01-27T10:55:18;102323.75;;;6.70;100.00
51468;BME280;37545;45.302;-122.946;2023-01-27T10:57:54;102316.13;;;6.71;100.00
51468;BME280;37545;45.302;-122.946;2023-01-27T11:00:31;102326.63;;;6.75;100.00
51468;BME280;37545;45.302;-122.946;2023-01-27T11:03:05;102329.31;;;6.76;100.00
51468;BME280;37545;45.302;-122.946;2023-01-27T11:05:38;102328.31;;;6.74;100.00
51468;BME280;37545;45.302;-122.946;2023-01-27T11:08:15;102327.13;;;6.69;100.00
51468;BME280;37545;45.302;-122.946;2023-01-27T11:10:48;102314.81;;;6.65;100.00
51468;BME280;37545;45.302;-122.946;2023-01-27T11:13:35;102306.09;;;6.63;100.00
51468;BME280;37545;45.302;-122.946;2023-01-27T11:16:10;102315.69;;;6.65;100.00
51468;BME280;37545;45.302;-122.946;2023-01-27T11:18:42;102310.44;;;6.64;100.00
51468;BME280;37545;45.302;-122.946;2023-01-27T11:21:16;102292.91;;;6.58;100.00
51468;BME280;37545;45.302;-122.946;2023-01-27T11:23:48;102271.22;;;6.55;100.00
51468;BME280;37545;45.302;-122.946;2023-01-27T11:26:26;102245.28;;;6.52;100.00
51468;BME280;37545;45.302;-122.946;2023-01-27T11:29:08;102265.66;;;6.48;100.00
51468;BME280;37545;45.302;-122.946;2023-01-27T11:31:48;102268.31;;;6.50;100.00
51468;BME280;37545;45.302;-122.946;2023-01-27T11:34:23;102269.88;;;6.48;100.00
51468;BME280;37545;45.302;-122.946;2023-01-27T11:36:53;102281.09;;;6.48;100.00
51468;BME280;37545;45.302;-122.946;2023-01-27T11:39:22;102275.34;;;6.53;100.00
51468;BME280;37545;45.302;-122.946;2023-01-27T11:41:53;102256.38;;;6.50;100.00
51468;BME280;37545;45.302;-122.946;2023-01-27T11:44:25;102234.56;;;6.45;100.00
51468;BME280;37545;45.302;-122.946;2023-01-27T11:46:55;102241.53;;;6.46;100.00
51468;BME280;37545;45.302;-122.946;2023-01-27T11:49:27;102229.44;;;6.45;100.00
51468;BME280;37545;45.302;-122.946;2023-01-27T11:52:00;102221.06;;;6.36;100.00
51468;BME280;37545;45.302;-122.946;2023-01-27T11:54:34;102208.69;;;6.31;100.00
51468;BME280;37545;45.302;-122.946;2023-01-27T11:57:14;102204.25;;;6.28;100.00
51468;BME280;37545;45.302;-122.946;2023-01-27T11:59:45;102212.41;;;6.22;100.00
51468;BME280;37545;45.302;-122.946;2023-01-27T12:02:24;102194.56;;;6.12;100.00
51468;BME280;37545;45.302;-122.946;2023-01-27T12:04:58;102191.53;;;6.06;100.00
51468;BME280;37545;45.302;-122.946;2023-01-27T12:07:37;102161.47;;;5.93;100.00
51468;BME280;37545;45.302;-122.946;2023-01-27T12:10:31;102166.78;;;5.95;100.00
51468;BME280;37545;45.302;-122.946;2023-01-27T12:13:08;102172.44;;;5.91;100.00
51468;BME280;37545;45.302;-122.946;2023-01-27T12:15:38;102156.00;;;5.88;100.00
51468;BME280;37545;45.302;-122.946;2023-01-27T12:18:15;102154.03;;;5.84;100.00
51468;BME280;37545;45.302;-122.946;2023-01-27T12:20:45;102159.25;;;5.86;100.00
51468;BME280;37545;45.302;-122.946;2023-01-27T12:23:18;102159.84;;;5.82;100.00
51468;BME280;37545;45.302;-122.946;2023-01-27T12:25:52;102152.25;;;5.83;100.00
51468;BME280;37545;45.302;-122.946;2023-01-27T12:28:29;102144.44;;;5.82;100.00
51468;BME280;37545;45.302;-122.946;2023-01-27T12:31:04;102152.91;;;5.81;100.00
51468;BME280;37545;45.302;-122.946;2023-01-27T12:33:37;102132.38;;;5.81;100.00
51468;BME280;37545;45.302;-122.946;2023-01-27T12:36:12;102124.66;;;5.81;100.00
51468;BME280;37545;45.302;-122.946;2023-01-27T12:38:45;102118.53;;;5.79;100.00
51468;BME280;37545;45.302;-122.946;2023-01-27T12:41:21;102127.91;;;5.78;100.00
51468;BME280;37545;45.302;-122.946;2023-01-27T12:43:54;102117.63;;;5.78;100.00
51468;BME280;37545;45.302;-122.946;2023-01-27T12:46:23;102109.03;;;5.78;100.00
51468;BME280;37545;45.302;-122.946;2023-01-27T12:48:59;102104.00;;;5.79;100.00